createdAt,value
2022-08-05T00:00:33.603Z,1010.07
2022-08-05T00:01:36.304Z,1010.05
2022-08-05T00:02:33.950Z,1010.05
2022-08-05T00:03:33.110Z,1010.04
2022-08-05T00:04:33.270Z,1010.03
2022-08-05T00:06:06.609Z,1010.04
2022-08-05T00:06:36.082Z,1010.04
2022-08-05T00:07:59.904Z,1010.00
2022-08-05T00:08:36.104Z,1009.99
2022-08-05T00:09:34.182Z,1009.99
2022-08-05T00:10:34.342Z,1010.00
2022-08-05T00:11:48.355Z,1009.98
2022-08-05T00:12:35.713Z,1009.95
2022-08-05T00:13:39.112Z,1010.00
2022-08-05T00:14:35.063Z,1010.02
2022-08-05T00:15:55.851Z,1010.00
2022-08-05T00:16:52.369Z,1010.00
2022-08-05T00:17:36.576Z,1009.97
2022-08-05T00:18:35.766Z,1009.96
2022-08-05T00:20:01.747Z,1009.94
2022-08-05T00:20:37.118Z,1010.01
2022-08-05T00:21:36.306Z,1010.01
2022-08-05T00:22:36.480Z,1010.03
2022-08-05T00:23:45.881Z,1010.03
2022-08-05T00:24:38.338Z,1010.07
2022-08-05T00:25:45.948Z,1010.07
2022-08-05T00:26:38.182Z,1010.11
2022-08-05T00:27:37.564Z,1010.09
2022-08-05T00:28:38.509Z,1010.13
2022-08-05T00:29:38.411Z,1010.15
2022-08-05T00:30:37.860Z,1010.19
2022-08-05T00:31:41.351Z,1010.29
2022-08-05T00:32:39.207Z,1010.40
2022-08-05T00:34:54.673Z,1010.44
2022-08-05T00:34:55.585Z,1010.44
2022-08-05T00:36:14.988Z,1010.34
2022-08-05T00:37:12.942Z,1010.30
2022-08-05T00:37:53.235Z,1010.30
2022-08-05T00:38:40.249Z,1010.32
2022-08-05T00:39:41.730Z,1010.35
2022-08-05T00:40:40.621Z,1010.35
2022-08-05T00:41:52.097Z,1010.35
2022-08-05T00:42:40.973Z,1010.34
2022-08-05T00:43:47.121Z,1010.34
2022-08-05T00:44:41.329Z,1010.31
2022-08-05T00:45:43.887Z,1010.32
2022-08-05T00:46:43.558Z,1010.32
2022-08-05T00:47:56.381Z,1010.31
2022-08-05T00:48:50.837Z,1010.33
2022-08-05T00:49:49.359Z,1010.30
2022-08-05T00:50:44.229Z,1010.33
2022-08-05T00:51:51.080Z,1010.34
2022-08-05T00:52:45.463Z,1010.30
2022-08-05T00:54:00.396Z,1010.34
2022-08-05T00:54:43.359Z,1010.32
2022-08-05T00:55:43.801Z,1010.38
2022-08-05T00:56:51.514Z,1010.37
2022-08-05T00:57:57.853Z,1010.42
2022-08-05T00:58:44.966Z,1010.41
2022-08-05T00:59:44.548Z,1010.40
2022-08-05T01:00:43.222Z,1010.43
2022-08-05T01:01:48.960Z,1010.37
2022-08-05T01:02:44.537Z,1010.40
2022-08-05T01:03:43.750Z,1010.36
2022-08-05T01:04:44.915Z,1010.35
2022-08-05T01:05:45.085Z,1010.35
2022-08-05T01:06:48.889Z,1010.35
2022-08-05T01:08:29.899Z,1010.37
2022-08-05T01:08:47.259Z,1010.44
2022-08-05T01:09:44.810Z,1010.52
2022-08-05T01:10:51.610Z,1010.59
2022-08-05T01:11:46.137Z,1010.62
2022-08-05T01:13:05.026Z,1010.56
2022-08-05T01:13:58.585Z,1010.48
2022-08-05T01:14:46.661Z,1010.51
2022-08-05T01:15:47.861Z,1010.47
2022-08-05T01:16:46.009Z,1010.52
2022-08-05T01:17:46.201Z,1010.58
2022-08-05T01:18:48.180Z,1010.62
2022-08-05T01:20:01.137Z,1010.60
2022-08-05T01:20:47.750Z,1010.49
2022-08-05T01:21:50.645Z,1010.40
2022-08-05T01:22:47.278Z,1010.40
2022-08-05T01:23:53.027Z,1010.48
2022-08-05T01:24:48.419Z,1010.54
2022-08-05T01:25:53.360Z,1010.58
2022-08-05T01:26:48.746Z,1010.58
2022-08-05T01:27:55.796Z,1010.57
2022-08-05T01:28:49.126Z,1010.51
2022-08-05T01:29:48.266Z,1010.48
2022-08-05T01:30:53.546Z,1010.47
2022-08-05T01:31:49.633Z,1010.52
2022-08-05T01:32:48.797Z,1010.56
2022-08-05T01:33:53.475Z,1010.55
2022-08-05T01:34:49.143Z,1010.51
2022-08-05T01:35:51.294Z,1010.49
2022-08-05T01:36:49.453Z,1010.44
2022-08-05T01:37:49.606Z,1010.43
2022-08-05T01:38:50.006Z,1010.41
2022-08-05T01:39:50.020Z,1010.39
2022-08-05T01:40:50.173Z,1010.34
2022-08-05T01:41:50.350Z,1010.35
2022-08-05T01:42:50.597Z,1010.33
2022-08-05T01:43:50.722Z,1010.33
2022-08-05T01:44:54.193Z,1010.38
2022-08-05T01:45:55.243Z,1010.39
2022-08-05T01:46:52.221Z,1010.38
2022-08-05T01:47:54.431Z,1010.36
2022-08-05T01:48:51.606Z,1010.26
2022-08-05T01:50:02.020Z,1010.29
2022-08-05T01:50:52.956Z,1010.26
2022-08-05T01:51:52.144Z,1010.27
2022-08-05T01:52:52.304Z,1010.31
2022-08-05T01:53:57.187Z,1010.37
2022-08-05T01:54:53.636Z,1010.39
2022-08-05T01:55:52.817Z,1010.41
2022-08-05T01:58:10.897Z,1010.33
2022-08-05T01:58:13.192Z,1010.36
2022-08-05T01:58:54.387Z,1010.27
2022-08-05T01:59:53.528Z,1010.27
2022-08-05T02:00:53.717Z,1010.27
2022-08-05T02:01:54.815Z,1010.31
2022-08-05T02:02:55.168Z,1010.38
2022-08-05T02:03:54.232Z,1010.40
2022-08-05T02:04:54.433Z,1010.41
2022-08-05T02:05:57.792Z,1010.41
2022-08-05T02:06:55.771Z,1010.36
2022-08-05T02:08:00.398Z,1010.35
2022-08-05T02:08:58.992Z,1010.34
2022-08-05T02:09:55.318Z,1010.36
2022-08-05T02:10:55.483Z,1010.35
2022-08-05T02:11:55.657Z,1010.36
2022-08-05T02:12:55.815Z,1010.42
2022-08-05T02:13:55.984Z,1010.41
2022-08-05T02:14:56.154Z,1010.42
2022-08-05T02:15:56.322Z,1010.38
2022-08-05T02:16:56.486Z,1010.37
2022-08-05T02:18:27.964Z,1010.34
2022-08-05T02:18:57.812Z,1010.34
2022-08-05T02:19:57.006Z,1010.34
2022-08-05T02:20:58.935Z,1010.37
2022-08-05T02:21:57.362Z,1010.35
2022-08-05T02:22:57.533Z,1010.34
2022-08-05T02:23:57.699Z,1010.34
2022-08-05T02:24:57.911Z,1010.36
2022-08-05T02:25:58.059Z,1010.30
2022-08-05T02:26:58.265Z,1010.33
2022-08-05T02:28:00.374Z,1010.30
2022-08-05T02:28:58.599Z,1010.28
2022-08-05T02:30:00.738Z,1010.27
2022-08-05T02:30:58.903Z,1010.21
2022-08-05T02:31:59.062Z,1010.24
2022-08-05T02:33:00.254Z,1010.29
2022-08-05T02:33:59.439Z,1010.28
2022-08-05T02:34:59.622Z,1010.31
2022-08-05T02:36:00.928Z,1010.28
2022-08-05T02:36:59.967Z,1010.32
2022-08-05T02:38:00.376Z,1010.33
2022-08-05T02:39:00.446Z,1010.32
2022-08-05T02:40:00.474Z,1010.29
2022-08-05T02:41:00.640Z,1010.27
2022-08-05T02:42:01.826Z,1010.28
2022-08-05T02:43:01.000Z,1010.25
2022-08-05T02:44:02.786Z,1010.23
2022-08-05T02:45:02.350Z,1010.22
2022-08-05T02:46:01.556Z,1010.24
2022-08-05T02:47:01.733Z,1010.21
2022-08-05T02:48:12.060Z,1010.18
2022-08-05T02:49:03.080Z,1010.22
2022-08-05T02:50:02.248Z,1010.20
2022-08-05T02:51:02.447Z,1010.18
2022-08-05T02:52:04.326Z,1010.17
2022-08-05T02:53:02.758Z,1010.14
2022-08-05T02:54:04.073Z,1010.15
2022-08-05T02:55:05.082Z,1010.16
2022-08-05T02:56:03.248Z,1010.14
2022-08-05T02:57:03.401Z,1010.10
2022-08-05T02:58:09.385Z,1010.11
2022-08-05T02:59:04.773Z,1010.10
2022-08-05T03:00:03.975Z,1010.07
2022-08-05T03:01:04.194Z,1010.06
2022-08-05T03:02:04.278Z,1010.02
2022-08-05T03:03:10.147Z,1010.03
2022-08-05T03:04:12.108Z,1009.97
2022-08-05T03:05:05.807Z,1009.95
2022-08-05T03:06:56.560Z,1009.96
2022-08-05T03:07:06.167Z,1009.92
2022-08-05T03:08:08.666Z,1009.99
2022-08-05T03:09:05.516Z,1009.97
2022-08-05T03:10:05.683Z,1009.98
2022-08-05T03:11:55.999Z,1009.97
2022-08-05T03:12:07.820Z,1009.91
2022-08-05T03:13:51.533Z,1009.91
2022-08-05T03:14:46.080Z,1009.82
2022-08-05T03:15:42.606Z,1009.79
2022-08-05T03:16:42.796Z,1009.82
2022-08-05T03:17:44.859Z,1009.79
2022-08-05T03:18:43.137Z,1009.84
2022-08-05T03:19:45.818Z,1009.83
2022-08-05T03:20:48.672Z,1009.87
2022-08-05T03:21:48.673Z,1009.86
2022-08-05T03:22:49.765Z,1009.90
2022-08-05T03:23:45.612Z,1009.88
2022-08-05T03:24:44.166Z,1009.91
2022-08-05T03:26:03.658Z,1009.92
2022-08-05T03:26:45.695Z,1009.86
2022-08-05T03:27:58.959Z,1009.87
2022-08-05T03:28:45.880Z,1009.84
2022-08-05T03:30:08.152Z,1009.92
2022-08-05T03:30:46.201Z,1009.90
2022-08-05T03:31:56.772Z,1009.94
2022-08-05T03:32:46.844Z,1009.93
2022-08-05T03:33:52.724Z,1009.97
2022-08-05T03:34:50.707Z,1009.98
2022-08-05T03:35:46.080Z,1010.07
2022-08-05T03:36:46.279Z,1010.10
2022-08-05T03:37:46.958Z,1010.09
2022-08-05T03:38:53.378Z,1010.14
2022-08-05T03:39:58.526Z,1010.16
2022-08-05T03:40:48.746Z,1010.14
2022-08-05T03:41:47.143Z,1010.17
2022-08-05T03:42:51.762Z,1010.20
2022-08-05T03:44:09.068Z,1010.23
2022-08-05T03:44:48.663Z,1010.25
2022-08-05T03:45:57.622Z,1010.23
2022-08-05T03:46:49.027Z,1010.22
2022-08-05T03:47:49.337Z,1010.22
2022-08-05T03:48:48.376Z,1010.18
2022-08-05T03:49:51.048Z,1010.19
2022-08-05T03:50:48.735Z,1010.21
2022-08-05T03:52:49.071Z,1010.17
2022-08-05T03:55:50.587Z,1010.13
2022-08-05T03:55:51.363Z,1010.12
2022-08-05T03:55:51.626Z,1010.13
2022-08-05T03:56:11.574Z,1010.13
2022-08-05T03:56:50.765Z,1010.15
2022-08-05T03:57:50.212Z,1010.17
2022-08-05T03:58:51.154Z,1010.15
2022-08-05T03:59:54.966Z,1010.17
2022-08-05T04:00:51.718Z,1010.24
2022-08-05T04:01:50.652Z,1010.27
2022-08-05T04:02:52.285Z,1010.29
2022-08-05T04:04:05.367Z,1010.33
2022-08-05T04:04:52.181Z,1010.35
2022-08-05T04:05:51.331Z,1010.30
2022-08-05T04:06:51.829Z,1010.37
2022-08-05T04:07:58.678Z,1010.36
2022-08-05T04:08:52.822Z,1010.34
2022-08-05T04:09:53.809Z,1010.35
2022-08-05T04:10:52.200Z,1010.38
2022-08-05T04:11:52.642Z,1010.39
2022-08-05T04:12:52.554Z,1010.40
2022-08-05T04:13:53.497Z,1010.38
2022-08-05T04:14:52.896Z,1010.43
2022-08-05T04:16:04.582Z,1010.40
2022-08-05T04:16:54.256Z,1010.43
2022-08-05T04:17:56.263Z,1010.45
2022-08-05T04:18:53.967Z,1010.47
2022-08-05T04:19:54.465Z,1010.49
2022-08-05T04:20:54.917Z,1010.52
2022-08-05T04:22:08.357Z,1010.49
2022-08-05T04:22:55.246Z,1010.53
2022-08-05T04:24:05.082Z,1010.48
2022-08-05T04:24:55.618Z,1010.48
2022-08-05T04:25:57.425Z,1010.47
2022-08-05T04:26:55.938Z,1010.43
2022-08-05T04:27:57.212Z,1010.38
2022-08-05T04:28:55.311Z,1010.37
2022-08-05T04:29:55.491Z,1010.36
2022-08-05T04:30:55.665Z,1010.36
2022-08-05T04:31:56.726Z,1010.29
2022-08-05T04:32:56.022Z,1010.30
2022-08-05T04:34:19.714Z,1010.25
2022-08-05T04:34:57.596Z,1010.26
2022-08-05T04:36:16.570Z,1010.24
2022-08-05T04:36:57.751Z,1010.24
2022-08-05T04:38:02.230Z,1010.30
2022-08-05T04:38:58.094Z,1010.31
2022-08-05T04:39:57.223Z,1010.31
2022-08-05T04:40:57.379Z,1010.29
2022-08-05T04:41:57.546Z,1010.29
2022-08-05T04:42:57.705Z,1010.32
2022-08-05T04:43:57.895Z,1010.34
2022-08-05T04:44:58.027Z,1010.34
2022-08-05T04:45:58.218Z,1010.27
2022-08-05T04:46:58.659Z,1010.22
2022-08-05T04:47:58.582Z,1010.25
2022-08-05T04:48:58.924Z,1010.26
2022-08-05T04:50:02.951Z,1010.29
2022-08-05T04:51:02.654Z,1010.31
2022-08-05T04:52:00.378Z,1010.40
2022-08-05T04:52:59.459Z,1010.39
2022-08-05T04:54:01.280Z,1010.40
2022-08-05T04:54:59.790Z,1010.47
2022-08-05T04:56:14.429Z,1010.42
2022-08-05T04:57:01.192Z,1010.39
2022-08-05T04:58:00.352Z,1010.46
2022-08-05T04:59:00.540Z,1010.47
2022-08-05T05:00:01.731Z,1010.50
2022-08-05T05:01:01.030Z,1010.56
2022-08-05T05:02:07.817Z,1010.58
2022-08-05T05:03:03.974Z,1010.55
2022-08-05T05:04:01.422Z,1010.61
2022-08-05T05:05:03.066Z,1010.63
2022-08-05T05:06:38.918Z,1010.72
2022-08-05T05:07:02.945Z,1010.75
2022-08-05T05:08:02.495Z,1010.86
2022-08-05T05:09:02.268Z,1010.82
2022-08-05T05:10:02.426Z,1010.90
2022-08-05T05:11:02.608Z,1010.94
2022-08-05T05:12:03.031Z,1011.03
2022-08-05T05:13:04.010Z,1011.07
2022-08-05T05:14:03.137Z,1011.08
2022-08-05T05:15:03.658Z,1011.16
2022-08-05T05:16:06.139Z,1011.23
2022-08-05T05:17:03.788Z,1011.20
2022-08-05T05:18:03.829Z,1011.23
2022-08-05T05:19:18.098Z,1011.22
2022-08-05T05:20:05.192Z,1011.17
2022-08-05T05:21:04.381Z,1011.18
2022-08-05T05:22:24.032Z,1011.09
2022-08-05T05:23:08.447Z,1011.09
2022-08-05T05:24:09.175Z,1011.07
2022-08-05T05:25:16.949Z,1011.03
2022-08-05T05:26:06.143Z,1011.03
2022-08-05T05:27:05.322Z,1011.05
2022-08-05T05:28:05.494Z,1011.07
2022-08-05T05:29:14.401Z,1011.09
2022-08-05T05:30:06.813Z,1011.13
2022-08-05T05:31:08.919Z,1011.14
2022-08-05T05:32:06.163Z,1011.10
2022-08-05T05:33:14.123Z,1011.12
2022-08-05T05:34:07.534Z,1011.05
2022-08-05T05:35:06.706Z,1011.03
2022-08-05T05:36:06.861Z,1011.06
2022-08-05T05:37:07.079Z,1011.13
2022-08-05T05:38:09.211Z,1011.18
2022-08-05T05:39:10.909Z,1011.26
2022-08-05T05:40:07.639Z,1011.39
2022-08-05T05:41:07.802Z,1011.51
2022-08-05T05:42:07.938Z,1011.61
2022-08-05T05:43:08.584Z,1011.71
2022-08-05T05:44:36.870Z,1011.85
2022-08-05T05:45:09.431Z,1011.88
2022-08-05T05:46:15.829Z,1011.94
2022-08-05T05:47:21.864Z,1011.94
2022-08-05T05:48:10.010Z,1011.92
2022-08-05T05:49:22.921Z,1011.87
2022-08-05T05:50:10.271Z,1011.88
2022-08-05T05:51:15.827Z,1011.93
2022-08-05T05:52:13.315Z,1011.91
2022-08-05T05:53:21.516Z,1011.98
2022-08-05T05:54:11.650Z,1012.02
2022-08-05T05:55:13.349Z,1012.02
2022-08-05T05:56:10.373Z,1012.10
2022-08-05T05:57:13.851Z,1012.05
2022-08-05T05:58:11.743Z,1012.10
2022-08-05T05:59:10.894Z,1012.07
2022-08-05T06:00:11.092Z,1012.15
2022-08-05T06:01:12.647Z,1012.15
2022-08-05T06:02:11.416Z,1012.16
2022-08-05T06:03:39.899Z,1012.28
2022-08-05T06:04:13.121Z,1012.21
2022-08-05T06:05:16.353Z,1012.35
2022-08-05T06:06:13.158Z,1012.35
2022-08-05T06:07:12.288Z,1012.45
2022-08-05T06:08:12.458Z,1012.47
2022-08-05T06:09:17.513Z,1012.47
2022-08-05T06:10:13.808Z,1012.41
2022-08-05T06:11:13.440Z,1012.40
2022-08-05T06:12:13.184Z,1012.36
2022-08-05T06:13:13.390Z,1012.34
2022-08-05T06:14:13.530Z,1012.32
2022-08-05T06:15:23.659Z,1012.28
2022-08-05T06:16:30.124Z,1012.26
2022-08-05T06:17:22.062Z,1012.18
2022-08-05T06:18:15.242Z,1012.17
2022-08-05T06:19:14.442Z,1012.18
2022-08-05T06:20:21.539Z,1012.14
2022-08-05T06:21:18.596Z,1012.12
2022-08-05T06:22:14.955Z,1012.13
2022-08-05T06:23:15.142Z,1012.10
2022-08-05T06:24:15.294Z,1012.03
2022-08-05T06:25:25.094Z,1012.07
2022-08-05T06:26:21.394Z,1012.12
2022-08-05T06:28:08.973Z,1012.10
2022-08-05T06:28:21.289Z,1012.10
2022-08-05T06:29:25.221Z,1012.16
2022-08-05T06:30:20.117Z,1012.07
2022-08-05T06:31:18.054Z,1012.12
2022-08-05T06:32:25.111Z,1012.16
2022-08-05T06:33:19.392Z,1012.09
2022-08-05T06:34:17.036Z,1012.06
2022-08-05T06:36:03.048Z,1012.11
2022-08-05T06:36:18.438Z,1012.08
2022-08-05T06:37:18.610Z,1012.04
2022-08-05T06:38:35.934Z,1012.09
2022-08-05T06:39:19.037Z,1012.09
2022-08-05T06:40:21.429Z,1012.08
2022-08-05T06:41:19.341Z,1012.07
2022-08-05T06:42:18.543Z,1012.05
2022-08-05T06:43:51.450Z,1012.01
2022-08-05T06:44:19.822Z,1012.01
2022-08-05T06:45:21.360Z,1012.00
2022-08-05T06:46:20.130Z,1012.00
2022-08-05T06:48:11.843Z,1011.99
2022-08-05T06:48:54.813Z,1012.04
2022-08-05T06:49:21.414Z,1012.06
2022-08-05T06:50:20.829Z,1012.06
2022-08-05T06:51:23.779Z,1012.08
2022-08-05T06:52:36.887Z,1012.05
2022-08-05T06:53:27.595Z,1012.16
2022-08-05T06:54:21.497Z,1012.17
2022-08-05T06:55:20.688Z,1012.20
2022-08-05T06:56:26.403Z,1012.12
2022-08-05T06:58:03.523Z,1012.18
2022-08-05T06:58:29.617Z,1012.24
2022-08-05T06:59:22.404Z,1012.31
2022-08-05T07:00:24.505Z,1012.38
2022-08-05T07:01:21.780Z,1012.46
2022-08-05T07:02:22.856Z,1012.57
2022-08-05T07:03:22.059Z,1012.58
2022-08-05T07:04:23.240Z,1012.61
2022-08-05T07:05:27.621Z,1012.66
2022-08-05T07:06:23.580Z,1012.70
2022-08-05T07:07:24.091Z,1012.71
2022-08-05T07:08:25.172Z,1012.78
2022-08-05T07:09:24.856Z,1012.76
2022-08-05T07:10:23.287Z,1012.80
2022-08-05T07:11:25.251Z,1012.80
2022-08-05T07:12:23.669Z,1012.80
2022-08-05T07:13:56.835Z,1012.72
2022-08-05T07:14:29.243Z,1012.79
2022-08-05T07:15:34.427Z,1012.70
2022-08-05T07:17:55.903Z,1012.71
2022-08-05T07:18:09.118Z,1012.64
2022-08-05T07:18:30.026Z,1012.58
2022-08-05T07:20:05.012Z,1012.56
2022-08-05T07:20:36.309Z,1012.55
2022-08-05T07:21:26.181Z,1012.45
2022-08-05T07:22:28.540Z,1012.45
2022-08-05T07:23:26.532Z,1012.40
2022-08-05T07:24:28.575Z,1012.38
2022-08-05T07:25:55.916Z,1012.32
2022-08-05T07:26:27.040Z,1012.37
2022-08-05T07:27:27.554Z,1012.36
2022-08-05T07:28:27.355Z,1012.41
2022-08-05T07:30:27.478Z,1012.47
2022-08-05T07:30:32.537Z,1012.49
2022-08-05T07:31:54.081Z,1012.47
2022-08-05T07:32:28.051Z,1012.53
2022-08-05T07:33:36.890Z,1012.54
2022-08-05T07:34:28.780Z,1012.57
2022-08-05T07:35:55.995Z,1012.56
2022-08-05T07:36:28.763Z,1012.58
2022-08-05T07:37:29.054Z,1012.53
2022-08-05T07:38:33.696Z,1012.53
2022-08-05T07:40:26.115Z,1012.46
2022-08-05T07:40:32.851Z,1012.43
2022-08-05T07:42:07.927Z,1012.38
2022-08-05T07:42:31.788Z,1012.33
2022-08-05T07:43:28.996Z,1012.27
2022-08-05T07:44:29.181Z,1012.17
2022-08-05T07:45:31.200Z,1012.14
2022-08-05T07:46:30.766Z,1012.14
2022-08-05T07:47:39.675Z,1012.13
2022-08-05T07:49:00.489Z,1012.22
2022-08-05T07:49:31.069Z,1012.21
2022-08-05T07:50:32.513Z,1012.24
2022-08-05T07:51:36.855Z,1012.22
2022-08-05T07:52:31.635Z,1012.13
2022-08-05T07:53:36.868Z,1012.03
2022-08-05T07:54:33.569Z,1012.01
2022-08-05T07:55:53.602Z,1012.05
2022-08-05T07:57:00.792Z,1012.17
2022-08-05T07:57:58.931Z,1012.26
2022-08-05T07:58:57.338Z,1012.27
2022-08-05T07:59:40.084Z,1012.19
2022-08-05T08:00:33.033Z,1012.09
2022-08-05T08:01:32.253Z,1011.97
2022-08-05T08:03:14.939Z,1011.89
2022-08-05T08:03:44.416Z,1011.84
2022-08-05T08:04:37.608Z,1011.81
2022-08-05T08:05:32.926Z,1011.88
2022-08-05T08:06:34.138Z,1011.98
2022-08-05T08:07:39.726Z,1012.06
2022-08-05T08:08:34.426Z,1012.12
2022-08-05T08:09:33.594Z,1012.10
2022-08-05T08:10:33.757Z,1012.10
2022-08-05T08:11:47.445Z,1012.05
2022-08-05T08:12:49.411Z,1012.02
2022-08-05T08:13:49.335Z,1012.00
2022-08-05T08:14:35.478Z,1011.94
2022-08-05T08:16:33.331Z,1011.89
2022-08-05T08:16:51.239Z,1011.89
2022-08-05T08:17:36.011Z,1012.00
2022-08-05T08:18:35.161Z,1012.13
2022-08-05T08:20:22.670Z,1012.22
2022-08-05T08:20:59.805Z,1012.30
2022-08-05T08:21:36.715Z,1012.36
2022-08-05T08:22:35.876Z,1012.37
2022-08-05T08:24:01.408Z,1012.34
2022-08-05T08:24:51.140Z,1012.35
2022-08-05T08:26:00.672Z,1012.40
2022-08-05T08:26:37.625Z,1012.45
2022-08-05T08:27:44.975Z,1012.47
2022-08-05T08:28:59.176Z,1012.47
2022-08-05T08:30:04.209Z,1012.48
2022-08-05T08:30:47.983Z,1012.51
2022-08-05T08:31:38.505Z,1012.57
2022-08-05T08:32:41.784Z,1012.68
2022-08-05T08:33:38.547Z,1012.71
2022-08-05T08:34:38.007Z,1012.79
2022-08-05T08:35:40.979Z,1012.82
2022-08-05T08:36:49.925Z,1012.82
2022-08-05T08:37:39.558Z,1012.84
2022-08-05T08:38:39.710Z,1012.87
2022-08-05T08:39:38.927Z,1012.92
2022-08-05T08:40:40.059Z,1012.93
2022-08-05T08:41:52.431Z,1012.96
2022-08-05T08:42:46.755Z,1012.90
2022-08-05T08:45:22.938Z,1013.00
2022-08-05T08:45:25.060Z,1012.95
2022-08-05T08:45:40.934Z,1013.02
2022-08-05T08:46:40.112Z,1013.05
2022-08-05T08:48:06.656Z,1013.05
2022-08-05T08:49:07.936Z,1013.05
2022-08-05T08:50:23.042Z,1013.08
2022-08-05T08:51:03.978Z,1013.07
2022-08-05T08:52:04.085Z,1013.06
2022-08-05T08:52:42.169Z,1013.00
2022-08-05T08:53:45.027Z,1013.02
2022-08-05T08:54:42.296Z,1013.05
2022-08-05T08:56:03.818Z,1013.08
2022-08-05T08:56:47.787Z,1013.06
2022-08-05T08:57:57.841Z,1013.06
2022-08-05T08:58:47.645Z,1013.07
2022-08-05T08:59:47.267Z,1013.10
2022-08-05T09:00:43.656Z,1013.12
2022-08-05T09:01:42.788Z,1013.16
2022-08-05T09:02:42.891Z,1013.18
2022-08-05T09:03:44.884Z,1013.16
2022-08-05T09:04:58.137Z,1013.16
2022-08-05T09:06:08.789Z,1013.15
2022-08-05T09:06:44.580Z,1013.14
2022-08-05T09:07:57.359Z,1013.20
2022-08-05T09:08:44.936Z,1013.23
2022-08-05T09:09:44.101Z,1013.24
2022-08-05T09:10:46.911Z,1013.27
2022-08-05T09:11:52.141Z,1013.20
2022-08-05T09:12:45.581Z,1013.24
2022-08-05T09:14:10.152Z,1013.21
2022-08-05T09:14:57.503Z,1013.20
2022-08-05T09:15:46.083Z,1013.11
2022-08-05T09:16:48.784Z,1013.08
2022-08-05T09:17:49.804Z,1012.99
2022-08-05T09:18:45.597Z,1012.96
2022-08-05T09:20:02.004Z,1012.99
2022-08-05T09:20:46.917Z,1013.03
2022-08-05T09:22:23.426Z,1013.11
2022-08-05T09:22:51.818Z,1013.18
2022-08-05T09:23:46.487Z,1013.28
2022-08-05T09:24:46.638Z,1013.26
2022-08-05T09:26:03.274Z,1013.25
2022-08-05T09:26:47.986Z,1013.23
2022-08-05T09:28:04.191Z,1013.27
2022-08-05T09:28:48.336Z,1013.26
2022-08-05T09:29:48.094Z,1013.20
2022-08-05T09:30:47.692Z,1013.17
2022-08-05T09:32:40.352Z,1013.02
2022-08-05T09:32:49.010Z,1012.96
2022-08-05T09:33:48.191Z,1012.88
2022-08-05T09:34:48.388Z,1012.86
2022-08-05T09:35:48.542Z,1012.91
2022-08-05T09:36:56.447Z,1012.94
2022-08-05T09:38:12.289Z,1012.91
2022-08-05T09:38:50.042Z,1012.89
2022-08-05T09:39:52.197Z,1012.94
2022-08-05T09:40:52.473Z,1012.96
2022-08-05T09:41:53.944Z,1012.99
2022-08-05T09:42:50.684Z,1012.93
2022-08-05T09:43:49.883Z,1012.84
2022-08-05T09:44:50.698Z,1012.70
2022-08-05T09:46:07.706Z,1012.58
2022-08-05T09:46:53.573Z,1012.42
2022-08-05T09:47:55.942Z,1012.34
2022-08-05T09:49:07.024Z,1012.33
2022-08-05T09:50:02.052Z,1012.35
2022-08-05T09:50:52.157Z,1012.44
2022-08-05T09:51:51.316Z,1012.56
2022-08-05T09:52:52.931Z,1012.59
2022-08-05T09:53:54.045Z,1012.68
2022-08-05T09:54:51.822Z,1012.69
2022-08-05T09:55:56.125Z,1012.62
2022-08-05T09:56:53.192Z,1012.51
2022-08-05T09:57:54.697Z,1012.40
2022-08-05T09:58:53.532Z,1012.30
2022-08-05T09:59:52.696Z,1012.26
2022-08-05T10:00:52.880Z,1012.32
2022-08-05T10:01:55.517Z,1012.54
2022-08-05T10:02:54.270Z,1012.77
2022-08-05T10:03:58.528Z,1012.88
2022-08-05T10:04:54.554Z,1012.87
2022-08-05T10:05:53.737Z,1012.84
2022-08-05T10:06:55.205Z,1012.72
2022-08-05T10:08:35.538Z,1012.64
2022-08-05T10:08:55.579Z,1012.64
2022-08-05T10:10:14.499Z,1012.75
2022-08-05T10:10:55.577Z,1012.79
2022-08-05T10:11:54.762Z,1012.87
2022-08-05T10:12:54.916Z,1012.86
2022-08-05T10:13:55.105Z,1012.87
2022-08-05T10:14:55.266Z,1012.93
2022-08-05T10:15:55.473Z,1012.91
2022-08-05T10:16:55.615Z,1012.92
2022-08-05T10:17:57.599Z,1012.98
2022-08-05T10:18:55.983Z,1013.00
2022-08-05T10:20:03.767Z,1013.05
2022-08-05T10:20:57.300Z,1013.16
2022-08-05T10:21:56.480Z,1013.25
2022-08-05T10:22:56.665Z,1013.28
2022-08-05T10:24:00.529Z,1013.32
2022-08-05T10:24:57.011Z,1013.28
2022-08-05T10:25:57.200Z,1013.30
2022-08-05T10:27:00.555Z,1013.27
2022-08-05T10:28:13.775Z,1013.21
2022-08-05T10:28:58.832Z,1013.11
2022-08-05T10:30:41.046Z,1013.07
2022-08-05T10:32:52.922Z,1013.06
2022-08-05T10:32:53.603Z,1013.09
2022-08-05T10:33:01.323Z,1013.04
2022-08-05T10:33:58.704Z,1013.05
2022-08-05T10:35:01.105Z,1013.04
2022-08-05T10:35:59.870Z,1013.02
2022-08-05T10:36:59.166Z,1012.98
2022-08-05T10:37:59.337Z,1012.91
2022-08-05T10:38:59.556Z,1012.98
2022-08-05T10:40:16.765Z,1012.97
2022-08-05T10:41:00.932Z,1013.06
2022-08-05T10:42:01.259Z,1013.07
2022-08-05T10:43:00.186Z,1013.05
2022-08-05T10:44:00.396Z,1013.02
2022-08-05T10:45:00.558Z,1012.98
2022-08-05T10:46:06.756Z,1012.95
2022-08-05T10:47:01.948Z,1012.90
2022-08-05T10:48:31.305Z,1012.89
2022-08-05T10:49:05.072Z,1012.86
2022-08-05T10:50:32.590Z,1012.86
2022-08-05T10:51:03.409Z,1012.84
2022-08-05T10:52:02.716Z,1012.82
2022-08-05T10:53:01.957Z,1012.77
2022-08-05T10:54:23.013Z,1012.79
2022-08-05T10:55:03.310Z,1012.75
2022-08-05T10:56:04.718Z,1012.72
2022-08-05T10:57:03.652Z,1012.74
2022-08-05T10:58:02.842Z,1012.69
2022-08-05T10:59:07.318Z,1012.67
2022-08-05T11:00:09.061Z,1012.72
2022-08-05T11:01:04.375Z,1012.71
2022-08-05T11:02:04.975Z,1012.77
2022-08-05T11:03:25.402Z,1012.82
2022-08-05T11:04:04.949Z,1012.88
2022-08-05T11:05:04.106Z,1012.90
2022-08-05T11:06:04.285Z,1012.95
2022-08-05T11:07:04.469Z,1012.98
2022-08-05T11:08:17.207Z,1012.97
2022-08-05T11:09:05.857Z,1012.97
2022-08-05T11:10:10.266Z,1012.96
2022-08-05T11:11:14.631Z,1013.02
2022-08-05T11:12:06.358Z,1013.06
2022-08-05T11:13:05.518Z,1013.09
2022-08-05T11:14:05.690Z,1013.08
2022-08-05T11:15:19.253Z,1013.11
2022-08-05T11:16:07.053Z,1013.07
2022-08-05T11:17:59.135Z,1013.05
2022-08-05T11:18:11.680Z,1013.05
2022-08-05T11:20:09.938Z,1013.05
2022-08-05T11:20:11.183Z,1013.03
2022-08-05T11:21:12.036Z,1013.08
2022-08-05T11:22:07.143Z,1013.03
2022-08-05T11:23:10.455Z,1013.04
2022-08-05T11:24:29.726Z,1013.00
2022-08-05T11:26:03.258Z,1012.97
2022-08-05T11:26:10.071Z,1013.01
2022-08-05T11:27:08.035Z,1012.99
2022-08-05T11:28:08.185Z,1012.95
2022-08-05T11:29:13.816Z,1013.01
2022-08-05T11:30:10.562Z,1012.99
2022-08-05T11:31:08.696Z,1012.99
2022-08-05T11:32:08.893Z,1013.01
2022-08-05T11:33:13.660Z,1013.03
2022-08-05T11:34:09.271Z,1013.02
2022-08-05T11:35:10.408Z,1013.05
2022-08-05T11:36:10.576Z,1013.07
2022-08-05T11:38:30.792Z,1012.98
2022-08-05T11:38:37.004Z,1013.06
2022-08-05T11:39:11.137Z,1013.05
2022-08-05T11:40:10.252Z,1013.02
2022-08-05T11:41:34.679Z,1012.97
2022-08-05T11:42:11.582Z,1013.02
2022-08-05T11:43:11.771Z,1013.04
2022-08-05T11:44:10.931Z,1013.03
2022-08-05T11:45:14.237Z,1013.08
2022-08-05T11:46:14.924Z,1013.12
2022-08-05T11:47:48.776Z,1013.12
2022-08-05T11:48:12.634Z,1013.11
2022-08-05T11:49:11.794Z,1013.08
2022-08-05T11:50:14.286Z,1013.10
2022-08-05T11:51:12.148Z,1013.04
2022-08-05T11:52:13.317Z,1013.01
2022-08-05T11:53:12.495Z,1013.01
2022-08-05T11:54:13.905Z,1012.95
2022-08-05T11:55:12.847Z,1012.93
2022-08-05T11:56:13.028Z,1012.96
2022-08-05T11:57:25.489Z,1012.93
2022-08-05T11:58:14.440Z,1012.92
2022-08-05T11:59:14.004Z,1012.93
2022-08-05T12:00:13.709Z,1012.89
2022-08-05T12:01:13.889Z,1012.95
2022-08-05T12:02:24.475Z,1012.93
2022-08-05T12:03:15.274Z,1012.98
2022-08-05T12:04:14.439Z,1012.90
2022-08-05T12:05:18.065Z,1012.94
2022-08-05T12:06:14.742Z,1012.90
2022-08-05T12:07:14.907Z,1012.91
2022-08-05T12:08:17.913Z,1012.99